Terminal Aerodrome Forecast
Issued by NWS

Home | Current Version | Previous Version | Graphics & Text | Print | Product List | Glossary On
Versions: 1 2 3 4 5 6 7 8 9 10 11 12 13 14 15 16 17
579
FTUS42 KMHX 181120
TAFISO
TAF
KISO 181120Z 1812/1912 VRB03KT 6SM -SHRA VCTS SCT015CB OVC050
     FM181600 19005KT P6SM VCTS BKN050CB
     FM182200 17006KT P6SM BKN060
      AMD LTD TO CLD VIS AND WIND=

USA.gov is the U.S. government's official web portal to all federal, state and local government web resources and services.